Airfield :
LOGIN :

Register | Disclaimer

   EN    FR    IT 

 










Legend :    VFR   Marginal VFR   IFR   Intensive IFR   Very Intensive IFR
Visi :
Ceiling :
>= 8 km
>= 3000ft
5 to 8 km
1000 to 3000 ft
1500m to 5 km
500 to 1000 ft
800 to 1500m
200 to 500 ft
< 800m
< 200 ft
Symbols :   Thunderstorms  Fog  Heavy snow  Heavy precipitations  Wind > 20 kt
SIGMETs :     Misc.  Thunderstorms  Icing  Turbulence  Mountain Waves  Volcanic Ashes






- Airport Elevation : 160 ft
- IATA code : FMO


EDDG - Münster Osnabrück Int.

CURRENT METAR :
  • 142250Z VRB02KT CAVOK 20/18 Q1014 NOSIG

EXPIRED METARs :
  • 142220Z 12003KT 050V180 CAVOK 20/18 Q1014 NOSIG
  • 142150Z 09003KT 030V140 CAVOK 21/18 Q1014 NOSIG
  • 142120Z 12004KT 060V160 9999 FEW048CB 21/18 Q1014 NOSIG
  • 142050Z 14005KT 110V180 9999 FEW048CB 21/19 Q1014 TEMPO TSRA
  • 142020Z 18005KT 150V220 9999 FEW048CB 21/19 Q1014 TEMPO TSRA

TAF TAF EDDG
Valid from the 14 at 18:00 until the 15 at 18:00 UTC


141700Z 1418/1518 35007KT 9999 FEW030
BECMG 1418/1421 VRB03KT
PROB40
TEMPO 1418/1423 20015G25KT 4000 TSRA BKN025CB
BECMG 1423/1502 3000 BR
PROB40
TEMPO 1500/1508 2000 TSRA BKN012CB
PROB30
TEMPO 1503/1508 1000 BCFG BKN001
BECMG 1508/1510 25005KT 8000
BECMG 1510/1512 33005KT
PROB30
TEMPO 1512/1518 10015G25KT TSRA BKN015CB



MET'MAP, your aeronautical weather chart ! - Copyright ORBIFLY December 2007 - Disclaimer

ORBIFLY MET'MAP TEAM :

Programming & Development : Alexandra Zaïnal
Concept & original design : Baudouin d'Aumeries
Assistance for programming : Marc-Olivier Méhu
Technical & hardware support : Manuel Goepfert

Contact : metmap@orbifly.com




SOURCES & CREDITS :

   NOAA